Time;durP1;ratioP1;P1;durP2;ratioP2;P2;SDS_P1;SDS_P2;PMS_P1;PMS_P2;Temp;Humidity;BMP_temperature;BMP_pressure;BME280_temperature;BME280_humidity;BME280_pressure;Samples;Min_cycle;Max_cycle;Signal;HPM_P1;HPM_P2
2023/01/27 00:02:20;;;;;;;16.95;10.60;;;;;;;-0.74;80.63;147145.41;5076017;28;20059;-69
2023/01/27 00:04:45;;;;;;;15.63;10.57;;;;;;;-0.75;80.24;147142.91;5074239;28;20037;-68
2023/01/27 00:07:11;;;;;;;16.33;11.52;;;;;;;-0.85;80.75;147117.50;5063666;28;20361;-68
2023/01/27 00:09:36;;;;;;;16.30;11.20;;;;;;;-0.83;79.99;147123.81;5083422;28;20031;-69
2023/01/27 00:14:46;;;;;;;15.50;10.70;;;;;;;-0.76;80.77;147140.34;5075956;28;20040;-68
2023/01/27 00:17:12;;;;;;;15.25;10.40;;;;;;;-0.98;80.82;147087.00;5070666;28;20194;-68
2023/01/27 00:19:37;;;;;;;15.85;10.63;;;;;;;-1.05;81.21;147069.22;5070175;28;20446;-68
2023/01/27 00:24:47;;;;;;;14.90;10.23;;;;;;;-0.97;80.74;147089.53;5082854;28;20039;-69
2023/01/27 00:27:13;;;;;;;15.07;10.38;;;;;;;-0.92;81.24;147100.97;5082904;28;20234;-69
2023/01/27 00:29:39;;;;;;;15.20;10.02;;;;;;;-0.80;80.51;147131.44;5066875;28;20079;-68
2023/01/27 00:34:49;;;;;;;18.13;11.35;;;;;;;-0.89;80.07;147109.84;5070593;28;20032;-68
2023/01/27 00:37:15;;;;;;;15.77;11.20;;;;;;;-1.32;80.57;147003.16;5062561;28;20025;-69
2023/01/27 00:39:41;;;;;;;14.38;10.18;;;;;;;-1.16;81.10;147041.28;5062333;28;20035;-68
2023/01/27 00:42:06;;;;;;;16.70;11.02;;;;;;;-1.16;81.68;147042.50;5062561;28;20263;-68
2023/01/27 00:44:32;;;;;;;16.60;10.88;;;;;;;-1.02;81.92;147076.81;5075718;28;20033;-69
2023/01/27 00:46:57;;;;;;;17.60;10.63;;;;;;;-1.18;82.05;147037.47;5073250;28;20044;-69
2023/01/27 00:49:23;;;;;;;17.27;11.35;;;;;;;-1.21;81.05;147029.84;5068250;28;20082;-68
2023/01/27 00:51:49;;;;;;;13.27;10.10;;;;;;;-1.05;81.03;147069.22;5086187;28;20083;-67
2023/01/27 00:54:15;;;;;;;14.68;10.55;;;;;;;-1.11;81.50;147053.94;5066595;28;20054;-68
2023/01/27 00:56:41;;;;;;;15.57;11.00;;;;;;;-1.02;81.38;147076.81;5070382;28;20045;-69
2023/01/27 00:59:07;;;;;;;14.63;10.20;;;;;;;-0.94;81.50;147097.16;5077624;28;20027;-68
2023/01/27 01:01:33;;;;;;;14.73;10.25;;;;;;;-0.89;81.58;147108.56;5080008;28;20189;-68
2023/01/27 01:03:59;;;;;;;15.02;9.82;;;;;;;-1.01;81.89;147079.38;5065338;28;20347;-69
2023/01/27 01:06:26;;;;;;;15.32;10.38;;;;;;;-1.06;82.35;147066.66;5066427;28;20245;-68
2023/01/27 01:08:52;;;;;;;16.10;10.05;;;;;;;-1.00;81.89;147080.63;5062570;28;20047;-69
2023/01/27 01:11:19;;;;;;;13.88;9.75;;;;;;;-0.89;81.61;147108.56;5078799;28;20063;-68
2023/01/27 01:13:45;;;;;;;14.73;9.75;;;;;;;-1.04;81.92;147071.75;5077969;28;20147;-68
2023/01/27 01:16:15;;;;;;;14.77;9.32;;;;;;;-1.16;82.33;147042.50;5068931;28;20025;-69
2023/01/27 01:18:42;;;;;;;11.15;8.85;;;;;;;-0.99;81.51;147084.44;5086000;28;20036;-68
2023/01/27 01:21:08;;;;;;;14.45;10.02;;;;;;;-1.06;82.55;147066.66;5048596;28;20343;-69
2023/01/27 01:23:38;;;;;;;13.43;8.80;;;;;;;-1.11;82.07;147053.94;5062889;28;20052;-69
2023/01/27 01:26:04;;;;;;;13.75;9.88;;;;;;;-1.14;82.19;147046.31;5068303;28;20301;-69
2023/01/27 01:28:29;;;;;;;13.55;9.32;;;;;;;-1.11;82.35;147053.94;5061996;28;20037;-69
2023/01/27 01:30:55;;;;;;;16.58;10.00;;;;;;;-1.02;82.84;147076.81;5066978;28;20075;-68
2023/01/27 01:33:21;;;;;;;13.02;8.43;;;;;;;-1.24;82.61;147023.50;5085976;28;20325;-69
2023/01/27 01:35:46;;;;;;;10.63;8.23;;;;;;;-1.35;82.77;146995.53;5069246;28;20052;-69
2023/01/27 01:38:13;;;;;;;11.20;8.55;;;;;;;-1.28;81.93;147012.06;5065545;28;20032;-70
2023/01/27 01:40:43;;;;;;;11.82;8.10;;;;;;;-1.31;82.39;147004.41;5047482;28;20078;-69
2023/01/27 01:43:16;;;;;;;10.25;7.93;;;;;;;-1.25;83.35;147019.69;5066312;28;20222;-70
2023/01/27 01:45:47;;;;;;;10.00;8.05;;;;;;;-1.42;83.08;146979.03;5065693;28;20078;-70
2023/01/27 01:48:22;;;;;;;11.95;8.52;;;;;;;-1.43;82.99;146975.22;5045826;28;20049;-69
2023/01/27 01:50:53;;;;;;;10.15;7.68;;;;;;;-1.40;83.18;146984.13;5078796;28;20031;-69
2023/01/27 01:53:21;;;;;;;10.05;7.13;;;;;;;-1.22;83.24;147027.28;5055343;28;20103;-68
2023/01/27 01:55:47;;;;;;;12.63;8.13;;;;;;;-1.31;83.10;147004.41;5064920;28;20376;-69
2023/01/27 01:58:14;;;;;;;9.60;7.63;;;;;;;-1.26;83.61;147017.13;5068166;28;20033;-68
2023/01/27 02:00:40;;;;;;;11.57;7.70;;;;;;;-1.48;83.20;146962.50;5084391;28;20091;-69
2023/01/27 02:03:06;;;;;;;9.00;6.95;;;;;;;-1.47;83.19;146965.06;5065649;28;20159;-68
2023/01/27 02:05:34;;;;;;;10.07;7.43;;;;;;;-1.57;83.50;146942.22;5079025;28;20052;-67
2023/01/27 02:08:08;;;;;;;8.93;6.80;;;;;;;-1.30;83.65;147008.22;5057473;28;20179;-67
2023/01/27 02:10:34;;;;;;;10.05;7.18;;;;;;;-1.37;82.52;146990.44;5064601;28;20052;-68
2023/01/27 02:13:00;;;;;;;8.50;6.47;;;;;;;-1.24;82.14;147022.19;5065167;28;20024;-68
2023/01/27 02:15:27;;;;;;;7.63;5.68;;;;;;;-1.34;81.85;146996.81;5064616;28;20083;-69
2023/01/27 02:17:52;;;;;;;7.38;5.53;;;;;;;-1.52;82.07;146953.63;5047496;28;20029;-69
2023/01/27 02:20:52;;;;;;;6.22;5.35;;;;;;;-1.48;80.91;146962.50;5076608;28;20025;-68
2023/01/27 02:23:23;;;;;;;6.65;5.50;;;;;;;-1.49;80.69;146960.00;5077651;28;20104;-68
2023/01/27 02:26:06;;;;;;;7.03;5.18;;;;;;;-1.46;81.48;146967.59;5076554;28;20047;-69
2023/01/27 02:28:31;;;;;;;7.75;5.15;;;;;;;-1.46;80.28;146967.59;5069704;28;20036;-68
2023/01/27 02:30:57;;;;;;;7.45;5.32;;;;;;;-1.59;81.27;146937.13;5075361;28;20047;-68
2023/01/27 02:33:24;;;;;;;6.53;5.47;;;;;;;-1.57;81.49;146940.94;5064849;28;20062;-68
2023/01/27 02:35:58;;;;;;;6.65;5.47;;;;;;;-1.58;80.38;146938.44;5080470;28;20024;-68
2023/01/27 02:38:26;;;;;;;6.97;5.72;;;;;;;-1.43;81.91;146975.22;5054100;28;20084;-68
2023/01/27 02:40:56;;;;;;;8.32;5.47;;;;;;;-1.53;80.83;146949.84;5064561;28;20025;-67
2023/01/27 02:43:22;;;;;;;9.18;5.80;;;;;;;-1.46;80.81;146967.59;5059353;28;20021;-68
2023/01/27 02:45:47;;;;;;;7.95;5.65;;;;;;;-1.49;81.46;146960.00;5064497;28;20252;-68
2023/01/27 02:48:14;;;;;;;7.63;5.50;;;;;;;-1.53;81.44;146949.84;5084054;28;20055;-69
2023/01/27 02:50:39;;;;;;;6.68;5.38;;;;;;;-1.41;81.26;146981.56;5069238;28;20035;-69
2023/01/27 02:53:06;;;;;;;8.20;6.13;;;;;;;-1.54;80.41;146947.28;5073626;28;20021;-68
2023/01/27 02:55:32;;;;;;;7.15;5.60;;;;;;;-1.54;80.70;146947.28;5050605;28;20103;-68
2023/01/27 02:57:57;;;;;;;8.27;5.82;;;;;;;-1.36;81.54;146991.75;5064228;28;20244;-69
2023/01/27 03:00:23;;;;;;;6.15;5.22;;;;;;;-1.63;80.62;146925.72;5083585;28;20032;-68
2023/01/27 03:02:48;;;;;;;6.10;4.85;;;;;;;-1.75;80.76;146897.78;5050004;28;20324;-70
2023/01/27 03:05:14;;;;;;;4.65;4.22;;;;;;;-1.66;81.00;146918.09;5075107;28;20032;-70
2023/01/27 03:07:40;;;;;;;8.02;4.82;;;;;;;-1.58;80.59;146939.66;5077479;28;20025;-70
2023/01/27 03:10:07;;;;;;;6.13;4.78;;;;;;;-1.45;80.98;146970.16;5065135;28;20248;-69
2023/01/27 03:12:32;;;;;;;6.05;4.80;;;;;;;-1.36;80.86;146993.00;5064861;28;20035;-67
2023/01/27 03:20:26;;;;;;;5.70;4.72;;;;;;;-1.42;80.63;146979.03;5070425;28;20028;-68
2023/01/27 03:22:52;;;;;;;7.50;4.75;;;;;;;-1.46;79.91;146967.59;5063578;28;20021;-68
2023/01/27 03:25:18;;;;;;;7.90;4.90;;;;;;;-1.53;79.79;146951.09;5063130;28;20031;-68
2023/01/27 03:27:43;;;;;;;7.22;4.90;;;;;;;-1.51;79.95;146954.91;5060408;28;20053;-68
2023/01/27 03:30:10;;;;;;;5.57;4.35;;;;;;;-1.56;80.15;146944.72;5065248;28;20044;-68
2023/01/27 03:32:36;;;;;;;8.95;5.15;;;;;;;-1.46;79.86;146968.88;5062798;28;20033;-67
2023/01/27 03:35:02;;;;;;;6.65;5.20;;;;;;;-1.46;80.25;146967.59;5062556;28;20025;-68
2023/01/27 03:48:34;;;;;;;6.32;4.88;;;;;;;-1.36;79.53;146993.00;5050389;28;20055;-69
2023/01/27 03:51:01;;;;;;;6.82;4.57;;;;;;;-1.36;79.57;146991.75;5080477;28;20028;-68
2023/01/27 03:53:27;;;;;;;5.53;4.47;;;;;;;-1.44;80.26;146972.66;5062695;28;20029;-68
2023/01/27 03:55:53;;;;;;;7.32;4.80;;;;;;;-1.41;80.62;146980.28;5063057;28;20017;-69
2023/01/27 03:58:23;;;;;;;5.88;4.40;;;;;;;-1.31;79.76;147004.41;5044802;28;20060;-67
2023/01/27 04:00:50;;;;;;;5.32;4.47;;;;;;;-1.37;80.29;146990.44;5062319;28;20040;-69
2023/01/27 04:08:49;;;;;;;6.45;5.13;;;;;;;-1.53;81.36;146949.84;5078115;28;20257;-68
2023/01/27 04:14:00;;;;;;;7.68;4.95;;;;;;;-1.31;81.27;147005.72;5071116;28;20088;-69
2023/01/27 04:16:27;;;;;;;7.07;5.05;;;;;;;-1.30;81.46;147008.22;5078697;28;20025;-66
2023/01/27 04:18:54;;;;;;;6.35;4.80;;;;;;;-1.43;80.07;146975.22;5062996;28;20025;-68
2023/01/27 04:21:19;;;;;;;6.43;5.22;;;;;;;-1.48;81.12;146963.81;5081491;28;20051;-68
2023/01/27 04:23:45;;;;;;;7.65;5.32;;;;;;;-1.32;81.46;147001.91;5082125;28;20099;-68
2023/01/27 04:26:10;;;;;;;7.00;5.38;;;;;;;-1.27;80.72;147014.56;5069566;28;20151;-68
2023/01/27 04:28:36;;;;;;;6.82;5.45;;;;;;;-1.40;80.51;146984.13;5067625;28;20038;-68
2023/01/27 04:31:02;;;;;;;7.78;5.55;;;;;;;-1.26;80.91;147018.38;5072983;28;20043;-69
2023/01/27 04:33:28;;;;;;;6.25;5.05;;;;;;;-1.21;80.45;147029.84;5062610;28;20317;-67
2023/01/27 04:35:54;;;;;;;7.93;5.18;;;;;;;-1.25;80.68;147019.69;5077723;28;20028;-70
2023/01/27 04:38:21;;;;;;;5.88;4.85;;;;;;;-1.22;80.33;147027.28;5071076;28;20070;-69
2023/01/27 04:40:47;;;;;;;5.63;4.72;;;;;;;-1.22;79.08;147028.56;5067839;28;20197;-67
2023/01/27 04:43:12;;;;;;;6.40;4.68;;;;;;;-1.25;79.89;147020.94;5062313;28;20078;-67
2023/01/27 04:45:38;;;;;;;6.53;5.18;;;;;;;-1.20;79.77;147032.34;5035609;28;20041;-68
2023/01/27 04:48:05;;;;;;;6.35;4.93;;;;;;;-1.16;79.19;147042.50;5041975;28;20033;-67
2023/01/27 04:50:31;;;;;;;5.82;4.82;;;;;;;-1.17;79.12;147039.97;5053306;28;20028;-68
2023/01/27 04:52:57;;;;;;;5.60;4.85;;;;;;;-1.29;78.85;147010.78;5054445;28;20040;-69
2023/01/27 04:55:23;;;;;;;5.82;4.97;;;;;;;-1.64;79.92;146924.47;5041934;28;20038;-68
2023/01/27 04:57:48;;;;;;;7.30;4.70;;;;;;;-1.34;79.76;146996.81;5042217;28;20217;-69
2023/01/27 05:00:15;;;;;;;6.13;5.05;;;;;;;-1.37;80.27;146990.44;5042219;28;20025;-69
2023/01/27 05:02:40;;;;;;;6.88;4.75;;;;;;;-1.42;80.14;146977.78;5047547;28;20026;-69
2023/01/27 05:05:06;;;;;;;6.28;4.70;;;;;;;-1.66;80.13;146919.34;5042286;28;20028;-68
2023/01/27 05:07:32;;;;;;;8.60;5.05;;;;;;;-1.36;80.16;146993.00;5042125;28;20021;-69
2023/01/27 05:09:58;;;;;;;6.35;5.35;;;;;;;-1.43;80.35;146975.22;5042130;28;20025;-68
2023/01/27 05:12:24;;;;;;;6.63;4.57;;;;;;;-1.48;80.18;146962.50;5042150;28;20056;-69
2023/01/27 05:14:49;;;;;;;7.15;4.88;;;;;;;-1.50;79.68;146957.44;5042406;28;20140;-67
2023/01/27 05:17:15;;;;;;;6.65;5.15;;;;;;;-1.49;80.90;146961.25;5041499;28;20025;-69
2023/01/27 05:19:41;;;;;;;5.38;4.72;;;;;;;-1.38;80.83;146987.94;5041880;28;20037;-68
2023/01/27 05:22:07;;;;;;;6.05;5.13;;;;;;;-1.29;80.13;147009.53;5041854;28;20032;-67
2023/01/27 05:24:33;;;;;;;7.20;4.90;;;;;;;-1.34;80.80;146998.09;5020066;28;20073;-69
2023/01/27 05:26:58;;;;;;;6.97;5.00;;;;;;;-1.46;80.21;146967.59;5037767;28;20272;-68
2023/01/27 05:29:24;;;;;;;6.38;4.85;;;;;;;-1.40;80.30;146984.13;5041831;28;20037;-69
2023/01/27 05:31:49;;;;;;;7.75;6.03;;;;;;;-1.35;80.94;146994.25;5041898;28;20029;-68
2023/01/27 05:34:15;;;;;;;8.40;5.57;;;;;;;-1.48;80.82;146962.50;5042291;28;20030;-70
2023/01/27 05:36:41;;;;;;;7.45;5.00;;;;;;;-1.57;81.44;146940.94;5032863;28;20138;-68
2023/01/27 05:39:09;;;;;;;7.25;5.40;;;;;;;-1.76;81.66;146893.97;5024790;28;20067;-70
2023/01/27 05:41:35;;;;;;;6.88;5.30;;;;;;;-1.66;81.73;146919.34;5027731;28;20101;-70
2023/01/27 05:44:00;;;;;;;7.82;5.63;;;;;;;-1.89;81.51;146862.25;5053282;28;20086;-70
2023/01/27 05:46:28;;;;;;;7.20;5.28;;;;;;;-1.66;81.25;146918.09;5060933;28;20078;-70
2023/01/27 05:48:57;;;;;;;6.35;5.07;;;;;;;-1.69;82.23;146911.75;5047517;28;20032;-70
2023/01/27 05:51:24;;;;;;;6.53;5.32;;;;;;;-1.81;81.55;146881.25;5046118;28;20045;-69
2023/01/27 05:53:50;;;;;;;6.97;5.47;;;;;;;-2.00;82.53;146835.56;5045418;28;20332;-69
2023/01/27 05:56:17;;;;;;;6.75;5.10;;;;;;;-1.78;82.41;146890.16;5045181;28;20021;-69
2023/01/27 05:58:44;;;;;;;6.97;5.78;;;;;;;-1.69;81.72;146911.75;5059383;28;20605;-69
2023/01/27 06:01:16;;;;;;;8.40;5.93;;;;;;;-1.79;81.39;146886.38;5045263;28;20033;-69
2023/01/27 06:03:43;;;;;;;7.90;5.55;;;;;;;-1.94;82.11;146849.53;5027836;28;20048;-70
2023/01/27 06:06:10;;;;;;;6.80;5.28;;;;;;;-1.77;80.65;146891.41;5044767;28;20029;-70
2023/01/27 06:08:36;;;;;;;6.72;5.18;;;;;;;-1.68;81.26;146914.28;5044815;28;20186;-70
2023/01/27 06:11:02;;;;;;;7.38;5.80;;;;;;;-1.64;80.89;146924.47;5045297;28;20030;-70
2023/01/27 06:13:28;;;;;;;9.27;6.18;;;;;;;-1.67;81.50;146916.81;5027414;28;20087;-70
2023/01/27 06:15:56;;;;;;;6.65;5.57;;;;;;;-1.74;81.67;146899.03;5044769;28;20049;-69
2023/01/27 06:18:23;;;;;;;8.93;5.70;;;;;;;-1.63;81.79;146926.97;5044840;28;20075;-70
2023/01/27 06:20:48;;;;;;;7.13;5.75;;;;;;;-1.79;81.76;146887.63;5044788;28;20037;-70
2023/01/27 06:23:15;;;;;;;10.10;5.82;;;;;;;-1.70;81.25;146907.94;5044779;28;20033;-70
2023/01/27 06:25:46;;;;;;;8.50;5.72;;;;;;;-1.63;82.72;146926.97;5044795;28;20332;-69
2023/01/27 06:28:12;;;;;;;7.18;5.40;;;;;;;-1.60;81.92;146934.56;5044624;28;20033;-70
2023/01/27 06:30:38;;;;;;;8.23;5.70;;;;;;;-2.00;81.66;146835.56;5044762;28;20029;-69
2023/01/27 06:33:05;;;;;;;7.47;5.40;;;;;;;-1.57;81.62;146940.94;5026815;28;20047;-70
2023/01/27 06:35:32;;;;;;;10.38;5.65;;;;;;;-1.48;81.25;146963.81;5041920;28;20025;-69
2023/01/27 06:37:59;;;;;;;10.25;5.75;;;;;;;-1.42;81.78;146977.78;5014223;28;20040;-68
2023/01/27 06:40:25;;;;;;;9.13;5.50;;;;;;;-1.36;81.33;146993.00;5041279;28;20313;-68
2023/01/27 06:42:51;;;;;;;7.90;5.60;;;;;;;-1.31;80.70;147004.41;5020742;28;20044;-69
2023/01/27 06:45:16;;;;;;;6.45;5.20;;;;;;;-1.26;80.34;147018.38;5043730;28;20056;-69
2023/01/27 06:47:42;;;;;;;7.00;5.53;;;;;;;-1.28;81.09;147012.06;5064424;28;20313;-68
2023/01/27 06:50:09;;;;;;;7.97;5.32;;;;;;;-1.40;80.72;146982.84;5064449;28;20020;-71
2023/01/27 06:52:35;;;;;;;10.48;5.40;;;;;;;-1.37;80.87;146989.19;5067257;28;20035;-70
2023/01/27 06:55:01;;;;;;;9.88;6.00;;;;;;;-1.42;80.36;146979.03;5067285;28;20084;-70
2023/01/27 06:57:27;;;;;;;9.98;6.05;;;;;;;-1.34;80.55;146996.81;5082573;28;20032;-69
2023/01/27 06:59:52;;;;;;;8.45;5.88;;;;;;;-1.29;80.71;147010.78;5069987;28;20088;-69
2023/01/27 07:02:18;;;;;;;10.73;6.22;;;;;;;-1.35;80.49;146995.53;5073414;28;20057;-69
2023/01/27 07:04:43;;;;;;;7.63;5.53;;;;;;;-1.28;79.95;147013.31;5065925;28;20198;-70
2023/01/27 07:07:09;;;;;;;7.30;5.97;;;;;;;-1.28;80.09;147012.06;5063377;28;20032;-70
2023/01/27 07:09:35;;;;;;;6.40;4.82;;;;;;;-1.26;79.91;147018.38;5065735;28;20031;-69
2023/01/27 07:12:00;;;;;;;10.27;5.47;;;;;;;-1.27;80.17;147015.88;5065784;28;20047;-70
2023/01/27 07:14:26;;;;;;;5.90;4.97;;;;;;;-1.52;80.39;146953.63;5065916;28;20028;-68
2023/01/27 07:16:51;;;;;;;9.88;5.28;;;;;;;-1.35;79.57;146995.53;5065582;28;20135;-69
2023/01/27 07:19:17;;;;;;;5.75;5.07;;;;;;;-1.47;79.63;146966.34;5064010;28;20031;-69
2023/01/27 07:21:43;;;;;;;6.68;5.40;;;;;;;-1.56;80.01;146944.72;5064078;28;20029;-69
2023/01/27 07:24:08;;;;;;;7.78;5.75;;;;;;;-1.40;79.66;146984.13;5045221;28;20028;-70
2023/01/27 07:26:34;;;;;;;7.90;5.55;;;;;;;-1.42;80.27;146979.03;5065491;28;20039;-70
2023/01/27 07:29:00;;;;;;;7.47;5.40;;;;;;;-1.40;79.29;146982.84;5065812;28;20029;-70
2023/01/27 07:31:25;;;;;;;7.60;5.40;;;;;;;-1.32;79.12;147003.16;5063091;28;20048;-70
2023/01/27 07:33:52;;;;;;;8.98;5.60;;;;;;;-1.42;79.66;146977.78;5063620;28;20040;-70
2023/01/27 07:36:18;;;;;;;8.38;5.97;;;;;;;-1.29;79.09;147010.78;5080319;28;20024;-68
2023/01/27 07:38:44;;;;;;;8.13;5.57;;;;;;;-1.28;79.80;147012.06;5070785;28;20288;-69
2023/01/27 07:41:10;;;;;;;7.35;5.28;;;;;;;-1.23;79.62;147026.03;5070239;28;20027;-69
2023/01/27 07:43:35;;;;;;;9.05;5.50;;;;;;;-1.12;78.87;147052.69;5078085;28;20077;-69
2023/01/27 07:46:01;;;;;;;8.38;5.70;;;;;;;-1.29;78.05;147009.53;5063539;28;20052;-68
2023/01/27 07:48:27;;;;;;;7.45;5.45;;;;;;;-1.20;78.22;147031.09;5082109;28;20230;-69
2023/01/27 07:50:52;;;;;;;9.02;5.80;;;;;;;-1.34;78.69;146998.09;5069638;28;20029;-68
2023/01/27 07:53:18;;;;;;;8.07;5.65;;;;;;;-1.17;78.20;147039.97;5071743;28;20048;-69
2023/01/27 07:55:43;;;;;;;10.93;5.60;;;;;;;-1.19;77.49;147034.91;5078810;28;20048;-69
2023/01/27 07:58:09;;;;;;;8.52;5.40;;;;;;;-1.16;78.70;147041.28;5063587;28;20049;-68
2023/01/27 08:00:35;;;;;;;7.10;5.68;;;;;;;-1.19;77.48;147034.91;5062551;28;20096;-68
2023/01/27 08:03:01;;;;;;;7.90;5.03;;;;;;;-1.28;78.72;147013.31;5077944;28;20039;-68
2023/01/27 08:05:30;;;;;;;7.22;5.55;;;;;;;-1.16;79.07;147041.28;5054712;28;20032;-69
2023/01/27 08:07:57;;;;;;;7.05;5.25;;;;;;;-1.17;77.66;147039.97;5069149;28;20024;-69
2023/01/27 08:10:23;;;;;;;8.23;5.70;;;;;;;-1.34;78.45;146998.09;5072166;28;20067;-69
2023/01/27 08:12:48;;;;;;;10.60;6.35;;;;;;;-1.13;77.87;147050.13;5063016;28;20029;-69
2023/01/27 08:15:14;;;;;;;9.10;6.15;;;;;;;-1.14;77.69;147047.63;5062798;28;20025;-69
2023/01/27 08:17:40;;;;;;;8.48;6.00;;;;;;;-1.12;77.86;147051.44;5063033;28;20055;-69
2023/01/27 08:20:08;;;;;;;8.38;5.63;;;;;;;-0.98;77.53;147087.00;5052020;28;20339;-69
2023/01/27 08:22:33;;;;;;;9.40;6.10;;;;;;;-0.83;77.95;147123.81;5069329;28;20317;-69
2023/01/27 08:24:59;;;;;;;8.63;5.80;;;;;;;-0.82;77.05;147125.09;5065546;28;20024;-69
2023/01/27 08:27:24;;;;;;;8.98;5.75;;;;;;;-0.87;76.34;147114.94;5064806;28;20037;-69
2023/01/27 08:29:50;;;;;;;7.47;5.40;;;;;;;-0.75;77.39;147144.16;5070589;28;20309;-70
2023/01/27 08:32:15;;;;;;;9.18;5.90;;;;;;;-0.76;75.72;147141.59;5062034;28;20249;-69
2023/01/27 08:34:41;;;;;;;7.15;5.88;;;;;;;-0.61;76.36;147178.47;5060947;28;20028;-69
2023/01/27 08:37:07;;;;;;;8.48;6.22;;;;;;;-0.60;76.38;147179.72;5044214;28;20037;-69
2023/01/27 08:39:33;;;;;;;8.88;5.85;;;;;;;-0.72;76.51;147151.75;5062104;28;20071;-69
2023/01/27 08:41:59;;;;;;;9.07;5.78;;;;;;;-0.66;76.36;147164.50;5062581;28;20095;-70
2023/01/27 08:44:27;;;;;;;11.30;7.00;;;;;;;-0.53;75.70;147197.50;5062301;28;20236;-68
2023/01/27 08:46:53;;;;;;;8.63;6.35;;;;;;;-0.79;75.72;147133.97;5063340;28;20079;-69
2023/01/27 08:49:19;;;;;;;8.40;6.15;;;;;;;-0.72;76.86;147150.50;5062279;28;20104;-69
2023/01/27 08:51:44;;;;;;;9.25;6.60;;;;;;;-0.69;76.02;147158.13;5044494;28;20049;-69
2023/01/27 08:54:10;;;;;;;8.85;6.50;;;;;;;-0.73;76.62;147147.97;5062137;28;20036;-70
2023/01/27 08:56:36;;;;;;;8.20;6.45;;;;;;;-0.74;77.03;147145.41;5061145;28;20067;-69
2023/01/27 08:59:02;;;;;;;14.20;6.78;;;;;;;-0.56;77.01;147191.13;5061554;28;20030;-69
2023/01/27 09:01:27;;;;;;;10.07;6.47;;;;;;;-0.59;76.36;147182.28;5043522;28;20097;-68
2023/01/27 09:03:53;;;;;;;8.40;6.35;;;;;;;-0.63;76.13;147173.34;5062134;28;20028;-70
2023/01/27 09:06:20;;;;;;;9.65;6.78;;;;;;;-0.74;76.74;147146.69;5061612;28;20041;-69
2023/01/27 09:09:07;;;;;;;9.25;6.72;;;;;;;-0.64;77.07;147170.84;5061755;28;20087;-70
2023/01/27 09:11:32;;;;;;;7.13;5.45;;;;;;;-0.70;76.38;147155.56;5064950;28;20029;-69
2023/01/27 09:13:58;;;;;;;8.68;6.22;;;;;;;-0.83;76.30;147123.81;5066674;28;20063;-69
2023/01/27 09:16:23;;;;;;;7.80;6.30;;;;;;;-0.73;76.31;147149.25;5065599;28;20120;-69
2023/01/27 09:18:49;;;;;;;8.05;6.30;;;;;;;-0.72;76.51;147151.75;5066256;28;20068;-70
2023/01/27 09:21:14;;;;;;;8.07;6.20;;;;;;;-0.57;76.79;147188.63;5066073;28;20025;-68
2023/01/27 09:23:40;;;;;;;8.93;6.97;;;;;;;-0.46;76.30;147214.03;5076674;28;20024;-69
2023/01/27 09:26:05;;;;;;;8.20;6.60;;;;;;;-0.46;76.12;147214.03;5079310;28;20148;-69
2023/01/27 09:28:31;;;;;;;8.35;6.38;;;;;;;-0.25;76.72;147266.16;5067910;28;20037;-69
2023/01/27 09:30:57;;;;;;;9.55;6.63;;;;;;;-0.34;75.72;147244.56;5064719;28;20035;-68
2023/01/27 09:33:24;;;;;;;8.55;6.53;;;;;;;-0.35;75.33;147242.00;5082838;28;20039;-69
2023/01/27 09:36:10;;;;;;;12.32;7.22;;;;;;;-0.29;75.37;147255.97;5072648;28;20268;-68
2023/01/27 09:38:41;;;;;;;8.45;6.57;;;;;;;-0.14;75.72;147292.81;5076037;28;20028;-68
2023/01/27 09:41:27;;;;;;;9.70;6.90;;;;;;;-0.20;75.20;147280.13;5061228;28;20224;-69
2023/01/27 09:44:24;;;;;;;12.63;7.13;;;;;;;-0.16;75.12;147289.00;5073290;28;20029;-69
2023/01/27 09:47:14;;;;;;;8.15;5.95;;;;;;;-0.16;74.82;147287.75;5080608;28;20049;-70
2023/01/27 09:49:49;;;;;;;10.75;7.30;;;;;;;-0.30;75.29;147253.44;5065207;28;20048;-68
2023/01/27 09:52:14;;;;;;;9.88;6.50;;;;;;;-0.11;75.11;147300.50;5081797;28;20029;-69
2023/01/27 09:55:06;;;;;;;9.65;7.10;;;;;;;-0.39;75.08;147233.09;5066119;28;20044;-69
2023/01/27 09:57:51;;;;;;;7.43;6.07;;;;;;;-0.32;75.40;147249.63;5065530;28;20320;-68
2023/01/27 10:00:45;;;;;;;7.85;5.95;;;;;;;-0.20;75.16;147278.84;5069221;28;20043;-69
2023/01/27 10:03:19;;;;;;;10.35;7.22;;;;;;;-0.24;75.37;147269.97;5080758;28;20092;-69
2023/01/27 10:06:03;;;;;;;9.27;6.90;;;;;;;-0.10;75.50;147303.00;5073648;28;20036;-68
2023/01/27 10:08:32;;;;;;;8.65;6.47;;;;;;;-0.04;74.94;147318.28;5074184;28;20208;-68
2023/01/27 10:11:03;;;;;;;9.70;6.68;;;;;;;-0.05;74.74;147316.97;5068907;28;20385;-68
2023/01/27 10:13:42;;;;;;;9.90;6.57;;;;;;;-0.05;74.54;147316.97;5064513;28;20068;-69
2023/01/27 10:16:50;;;;;;;9.88;6.90;;;;;;;-0.10;74.49;147304.31;5046301;28;20239;-68
2023/01/27 10:19:26;;;;;;;11.07;7.15;;;;;;;-0.28;74.77;147259.78;5046875;28;20062;-68
2023/01/27 10:22:30;;;;;;;9.73;7.40;;;;;;;-0.45;76.24;147217.84;5062636;28;20037;-69
2023/01/27 10:25:14;;;;;;;9.75;6.93;;;;;;;-0.29;75.44;147255.97;5024317;28;20037;-69
2023/01/27 10:27:51;;;;;;;8.98;7.03;;;;;;;-0.26;74.99;147264.84;5061408;28;20344;-70
2023/01/27 10:30:40;;;;;;;8.82;6.88;;;;;;;-0.15;75.13;147291.56;5060965;28;20255;-69
2023/01/27 10:33:14;;;;;;;9.38;6.82;;;;;;;-0.33;75.24;147245.81;5064298;28;20021;-69
2023/01/27 10:36:05;;;;;;;11.32;7.30;;;;;;;-0.51;76.12;147202.63;5052680;28;20051;-67
2023/01/27 10:39:12;;;;;;;11.95;7.75;;;;;;;-0.34;75.87;147244.56;5073972;28;20032;-68
2023/01/27 10:41:57;;;;;;;8.80;7.20;;;;;;;-0.31;75.64;147252.19;5048354;28;20044;-68
2023/01/27 10:44:37;;;;;;;8.30;6.75;;;;;;;-0.28;76.34;147259.78;5067725;28;20313;-67
2023/01/27 10:47:15;;;;;;;8.05;6.80;;;;;;;-0.27;75.84;147262.34;5079129;28;20036;-69
2023/01/27 10:49:56;;;;;;;9.15;6.88;;;;;;;-0.23;75.22;147271.22;5064168;28;20033;-68
2023/01/27 10:52:28;;;;;;;10.52;7.93;;;;;;;-0.25;75.69;147267.41;5064249;28;20100;-69
2023/01/27 10:55:04;;;;;;;11.52;7.35;;;;;;;-0.22;75.23;147275.03;5061370;28;20048;-68
2023/01/27 10:57:37;;;;;;;9.60;7.22;;;;;;;-0.16;75.28;147287.75;5081529;28;20022;-68
2023/01/27 11:00:22;;;;;;;9.25;7.28;;;;;;;-0.01;75.78;147325.91;5070730;28;20048;-68
2023/01/27 11:03:23;;;;;;;12.20;8.20;;;;;;;-0.06;75.86;147314.47;5062298;28;20133;-68
2023/01/27 11:05:52;;;;;;;9.10;7.20;;;;;;;0.01;75.07;147330.97;5022009;28;20034;-69
2023/01/27 11:08:28;;;;;;;9.48;7.53;;;;;;;0.12;74.59;147357.69;5055338;28;20069;-68
2023/01/27 11:13:42;;;;;;;9.90;7.85;;;;;;;-0.12;75.68;147297.94;5072532;28;20029;-68
2023/01/27 11:16:15;;;;;;;13.45;7.72;;;;;;;-0.15;76.18;147290.31;5077487;28;20051;-69
2023/01/27 11:18:42;;;;;;;11.35;7.75;;;;;;;-0.23;76.11;147271.22;5082505;28;20036;-69
2023/01/27 11:21:27;;;;;;;10.20;7.93;;;;;;;-0.24;76.51;147269.97;5052001;28;20025;-69
2023/01/27 11:23:55;;;;;;;10.77;7.05;;;;;;;-0.26;77.33;147264.84;5045480;28;20028;-69
2023/01/27 11:26:35;;;;;;;10.18;7.88;;;;;;;-0.25;76.71;147267.41;5070963;28;20380;-70
2023/01/27 11:29:20;;;;;;;10.32;7.70;;;;;;;-0.22;76.19;147275.03;5056049;28;20186;-69
2023/01/27 11:32:11;;;;;;;9.90;7.45;;;;;;;-0.19;76.96;147281.41;5070500;28;20336;-69
2023/01/27 11:34:51;;;;;;;10.07;7.47;;;;;;;-0.27;76.92;147262.34;5081345;28;20032;-70
2023/01/27 11:37:44;;;;;;;11.10;7.75;;;;;;;-0.22;77.20;147273.78;5045615;28;20053;-70
2023/01/27 11:40:26;;;;;;;8.30;7.00;;;;;;;-0.11;76.84;147300.50;5045693;28;20032;-68
2023/01/27 11:42:51;;;;;;;;;;;;;;;-0.33;76.91;147245.81;5083862;28;20036;-69
2023/01/27 11:45:20;;;;;;;9.82;7.13;;;;;;;-0.17;77.79;147286.50;5063919;28;19913;-69
2023/01/27 11:47:59;;;;;;;12.05;8.35;;;;;;;-0.26;77.21;147263.59;5074139;28;20613;-68
2023/01/27 11:50:28;;;;;;;10.13;8.23;;;;;;;-0.20;77.02;147280.13;5075487;28;20060;-70
2023/01/27 11:53:10;;;;;;;11.75;7.63;;;;;;;-0.23;77.67;147271.22;5066664;28;20091;-68
2023/01/27 11:55:40;;;;;;;11.23;7.50;;;;;;;-0.23;77.12;147272.53;5081498;28;20096;-68
2023/01/27 11:58:23;;;;;;;9.43;7.65;;;;;;;-0.28;77.31;147259.78;5083240;28;20222;-69
2023/01/27 12:00:54;;;;;;;12.98;8.35;;;;;;;-0.19;76.87;147282.66;5063460;28;20083;-69
2023/01/27 12:03:26;;;;;;;10.05;7.78;;;;;;;-0.22;77.54;147275.03;5078450;28;20117;-68
2023/01/27 12:06:01;;;;;;;10.10;8.23;;;;;;;-0.29;77.77;147257.25;5071134;28;20024;-68
2023/01/27 12:08:37;;;;;;;10.40;8.20;;;;;;;-0.35;77.23;147243.25;5062607;28;20059;-69